Time;durP1;ratioP1;P1;durP2;ratioP2;P2;SDS_P1;SDS_P2;PMS_P1;PMS_P2;Temp;Humidity;BMP_temperature;BMP_pressure;BME280_temperature;BME280_humidity;BME280_pressure;Samples;Min_cycle;Max_cycle;Signal;HPM_P1;HPM_P2
2023/06/28 00:01:20;;;;;;;4.50;2.72;;;;;;;21.71;47.74;95727.28;4998591;28;20227;-85
2023/06/28 00:03:49;;;;;;;4.68;2.80;;;;;;;21.68;48.81;95734.81;4989250;28;20228;-85
2023/06/28 00:06:15;;;;;;;5.35;2.45;;;;;;;21.62;49.37;95743.63;4988965;28;20215;-85
2023/06/28 00:08:42;;;;;;;2.80;2.60;;;;;;;21.43;50.85;95740.50;4989339;28;20227;-85
2023/06/28 00:11:08;;;;;;;3.65;2.40;;;;;;;21.32;52.13;95742.19;4989309;28;20654;-85
2023/06/28 00:13:35;;;;;;;2.90;2.50;;;;;;;21.34;51.36;95741.94;5003428;28;20202;-85
2023/06/28 00:16:02;;;;;;;2.90;2.65;;;;;;;21.19;52.88;95742.47;5008943;28;20232;-85
2023/06/28 00:18:30;;;;;;;6.00;2.42;;;;;;;21.19;52.34;95736.44;5007814;28;20230;-86
2023/06/28 00:20:56;;;;;;;2.83;2.63;;;;;;;21.13;52.23;95742.66;5007606;28;20241;-85
2023/06/28 00:23:23;;;;;;;2.85;2.50;;;;;;;21.02;52.85;95752.94;5008855;28;20229;-85
2023/06/28 00:25:49;;;;;;;3.65;2.90;;;;;;;21.02;52.85;95752.16;5009188;28;20578;-84
2023/06/28 00:28:16;;;;;;;3.70;3.00;;;;;;;21.00;53.72;95746.34;5027859;28;20305;-85
2023/06/28 00:30:42;;;;;;;3.08;2.60;;;;;;;20.87;53.82;95751.91;5027900;28;20222;-85
2023/06/28 00:33:08;;;;;;;3.78;2.50;;;;;;;20.93;54.26;95766.69;5028708;28;20202;-86
2023/06/28 00:35:36;;;;;;;3.08;2.35;;;;;;;20.95;54.18;95741.06;5007954;28;20203;-85
2023/06/28 00:38:03;;;;;;;3.17;2.70;;;;;;;20.88;54.57;95740.41;5012030;28;20243;-86
2023/06/28 00:40:29;;;;;;;7.20;2.90;;;;;;;20.84;55.62;95747.94;5011944;28;20635;-85
2023/06/28 00:42:55;;;;;;;3.45;2.67;;;;;;;20.82;56.39;95760.47;5011920;28;20214;-85
2023/06/28 00:45:22;;;;;;;4.25;3.30;;;;;;;20.81;57.96;95769.34;5011978;28;20203;-85
2023/06/28 00:47:50;;;;;;;3.55;3.25;;;;;;;20.56;60.20;95769.72;5012146;28;20203;-86
2023/06/28 00:50:17;;;;;;;5.05;2.83;;;;;;;20.30;56.87;95772.84;5011127;28;20222;-85
2023/06/28 00:52:45;;;;;;;3.60;2.50;;;;;;;20.20;56.59;95778.69;5012164;28;20214;-86
2023/06/28 00:55:11;;;;;;;3.50;2.70;;;;;;;20.05;58.09;95795.84;5012336;28;20206;-85
2023/06/28 00:57:38;;;;;;;2.58;2.38;;;;;;;19.98;58.82;95782.94;5011861;28;20567;-85
2023/06/28 01:00:08;;;;;;;2.70;2.50;;;;;;;20.02;58.03;95792.66;5012431;28;20747;-86
2023/06/28 01:02:34;;;;;;;3.70;2.60;;;;;;;20.01;59.88;95795.53;5012128;28;20207;-85
2023/06/28 01:05:03;;;;;;;3.33;2.60;;;;;;;20.00;59.13;95804.41;5011790;28;20242;-85
2023/06/28 01:07:35;;;;;;;3.50;2.60;;;;;;;20.00;59.83;95807.03;5010821;28;20298;-85
2023/06/28 01:10:04;;;;;;;4.30;2.78;;;;;;;20.00;60.06;95807.03;5012118;28;20241;-85
2023/06/28 01:12:30;;;;;;;3.13;2.83;;;;;;;19.99;60.81;95816.69;5011627;28;20199;-85
2023/06/28 01:14:57;;;;;;;2.90;2.60;;;;;;;20.08;59.68;95818.94;5011973;28;20225;-86
2023/06/28 01:17:23;;;;;;;2.90;2.63;;;;;;;20.09;59.14;95818.69;5011876;28;20207;-85
2023/06/28 01:19:50;;;;;;;3.33;2.70;;;;;;;20.02;60.75;95818.81;5010863;28;20557;-85
2023/06/28 01:22:16;;;;;;;4.45;2.55;;;;;;;20.00;61.78;95830.53;5010156;28;20203;-85
2023/06/28 01:24:46;;;;;;;3.10;2.80;;;;;;;19.82;63.10;95825.44;5011792;28;20218;-85
2023/06/28 01:27:13;;;;;;;3.40;3.10;;;;;;;19.83;62.02;95833.03;5022937;28;20292;-85
2023/06/28 01:29:43;;;;;;;3.67;2.83;;;;;;;19.92;62.33;95843.94;5031730;28;20218;-86
2023/06/28 01:32:09;;;;;;;3.13;2.83;;;;;;;19.94;62.21;95847.13;5016903;28;20202;-85
2023/06/28 01:34:36;;;;;;;4.78;2.83;;;;;;;19.79;63.89;95849.41;5011537;28;20202;-86
2023/06/28 01:37:04;;;;;;;3.25;2.95;;;;;;;19.70;65.13;95856.00;5011102;28;20203;-85
2023/06/28 01:39:32;;;;;;;3.90;3.15;;;;;;;19.67;64.65;95865.88;5010201;28;20206;-85
2023/06/28 01:42:00;;;;;;;3.30;3.00;;;;;;;19.63;65.17;95867.34;5011480;28;20218;-85
2023/06/28 01:44:27;;;;;;;3.90;2.97;;;;;;;19.60;66.30;95869.63;5011505;28;20206;-85
2023/06/28 01:46:54;;;;;;;4.32;3.10;;;;;;;19.58;65.10;95869.84;5010187;28;20203;-85
2023/06/28 01:49:21;;;;;;;3.65;3.03;;;;;;;19.44;66.96;95867.63;5011959;28;20249;-86
2023/06/28 01:51:48;;;;;;;3.90;2.78;;;;;;;19.45;66.69;95866.59;5011404;28;20227;-86
2023/06/28 01:54:15;;;;;;;3.53;2.92;;;;;;;19.45;68.00;95869.22;5010411;28;20198;-85
2023/06/28 01:56:41;;;;;;;6.30;3.35;;;;;;;19.44;68.13;95870.22;5011147;28;20214;-85
2023/06/28 01:59:09;;;;;;;4.10;2.90;;;;;;;19.30;66.90;95878.28;5012001;28;20573;-85
2023/06/28 02:01:36;;;;;;;3.05;2.65;;;;;;;19.24;65.92;95870.56;5012173;28;20639;-85
2023/06/28 02:04:02;;;;;;;2.80;2.60;;;;;;;19.14;66.14;95863.25;5012508;28;20203;-86
2023/06/28 02:06:28;;;;;;;3.38;2.85;;;;;;;19.12;66.13;95869.72;5000708;28;20681;-85
2023/06/28 02:08:55;;;;;;;2.70;2.50;;;;;;;19.15;66.69;95867.44;4992477;28;20601;-86
2023/06/28 02:11:21;;;;;;;2.40;2.20;;;;;;;19.26;66.23;95858.03;5001407;28;20219;-86
2023/06/28 02:13:48;;;;;;;3.63;2.50;;;;;;;19.43;64.83;95860.84;5011881;28;20207;-86
2023/06/28 02:16:15;;;;;;;2.60;2.30;;;;;;;19.41;65.02;95866.28;5012425;28;20206;-85
2023/06/28 02:18:45;;;;;;;3.10;2.80;;;;;;;19.41;67.00;95876.72;5011921;28;20646;-86
2023/06/28 02:21:11;;;;;;;4.53;2.88;;;;;;;19.29;67.62;95870.66;5011111;28;20226;-87
2023/06/28 02:23:38;;;;;;;3.00;2.70;;;;;;;19.16;68.11;95871.66;5011812;28;20214;-86
2023/06/28 02:26:04;;;;;;;2.95;2.70;;;;;;;19.18;67.26;95871.44;5014065;28;20213;-87
2023/06/28 02:28:31;;;;;;;3.05;2.67;;;;;;;19.21;65.71;95863.16;5012478;28;20280;-86
2023/06/28 02:30:57;;;;;;;3.30;2.80;;;;;;;19.10;66.87;95875.16;5012289;28;20672;-85
2023/06/28 02:33:25;;;;;;;3.45;2.65;;;;;;;19.12;69.03;95873.13;5012157;28;20289;-86
2023/06/28 02:35:51;;;;;;;2.80;2.50;;;;;;;19.19;67.89;95876.44;5012865;28;20202;-85
2023/06/28 02:38:18;;;;;;;3.22;2.60;;;;;;;19.17;67.47;95873.25;5012215;28;20817;-85
2023/06/28 02:40:44;;;;;;;3.67;3.00;;;;;;;19.21;67.32;95876.22;5011480;28;20242;-86
2023/06/28 02:43:11;;;;;;;3.60;2.60;;;;;;;19.23;68.09;95879.41;5010764;28;20222;-86
2023/06/28 02:45:37;;;;;;;2.97;2.67;;;;;;;19.29;67.07;95868.84;5011645;28;20206;-86
2023/06/28 02:48:04;;;;;;;5.72;3.38;;;;;;;19.24;66.97;95868.72;5011270;28;20688;-86
2023/06/28 02:50:32;;;;;;;4.05;2.83;;;;;;;19.19;67.38;95868.59;5011394;28;20611;-86
2023/06/28 02:52:58;;;;;;;3.13;2.78;;;;;;;19.10;67.59;95866.53;5011743;28;20214;-86
2023/06/28 02:55:25;;;;;;;3.55;2.50;;;;;;;19.12;67.13;95867.09;5011994;28;20207;-86
2023/06/28 02:57:52;;;;;;;4.50;2.88;;;;;;;19.16;68.57;95865.63;5012195;28;20210;-85
2023/06/28 03:00:19;;;;;;;3.95;2.83;;;;;;;19.26;66.64;95868.50;5009911;28;20231;-85
2023/06/28 03:02:46;;;;;;;4.28;2.70;;;;;;;19.29;65.96;95868.06;5010801;28;20218;-86
2023/06/28 03:05:12;;;;;;;4.72;2.85;;;;;;;19.19;67.73;95862.59;5011471;28;20210;-86
2023/06/28 03:07:40;;;;;;;4.18;2.78;;;;;;;19.13;69.12;95871.31;5011867;28;20199;-86
2023/06/28 03:10:08;;;;;;;4.03;3.10;;;;;;;18.96;70.61;95874.53;5011911;28;20732;-86
2023/06/28 03:12:34;;;;;;;4.25;2.85;;;;;;;18.93;70.77;95874.97;5012581;28;20202;-86
2023/06/28 03:15:02;;;;;;;3.83;3.13;;;;;;;18.95;68.98;95870.34;5010996;28;20221;-85
2023/06/28 03:17:28;;;;;;;5.30;3.55;;;;;;;18.95;68.49;95862.50;5010857;28;20211;-85
2023/06/28 03:19:54;;;;;;;4.85;3.42;;;;;;;18.95;69.49;95859.09;5010837;28;20807;-86
2023/06/28 03:22:21;;;;;;;5.43;3.55;;;;;;;18.95;70.56;95856.50;5011150;28;20217;-86
2023/06/28 03:24:49;;;;;;;3.85;3.45;;;;;;;19.03;69.33;95858.81;5011010;28;20203;-85
2023/06/28 03:27:15;;;;;;;3.50;3.20;;;;;;;18.97;70.25;95857.06;5016490;28;20205;-85
2023/06/28 03:29:42;;;;;;;3.92;3.63;;;;;;;18.87;70.43;95859.41;5030964;28;20254;-85
2023/06/28 03:32:09;;;;;;;3.85;3.50;;;;;;;18.73;71.45;95855.38;5017793;28;20294;-86
2023/06/28 03:34:35;;;;;;;5.03;3.40;;;;;;;18.78;70.80;95861.53;5011620;28;20202;-87
2023/06/28 03:37:02;;;;;;;3.85;3.42;;;;;;;18.80;70.85;95859.50;5011419;28;20203;-85
2023/06/28 03:39:28;;;;;;;4.63;3.60;;;;;;;18.86;70.32;95858.59;5010941;28;20603;-85
2023/06/28 03:41:56;;;;;;;3.63;3.33;;;;;;;18.90;70.50;95859.75;5011657;28;20229;-85
2023/06/28 03:44:23;;;;;;;3.60;3.30;;;;;;;18.95;69.62;95857.28;5012059;28;20198;-87
2023/06/28 03:46:49;;;;;;;4.28;3.60;;;;;;;18.89;69.61;95857.38;5011167;28;20213;-87
2023/06/28 03:49:16;;;;;;;4.40;3.60;;;;;;;18.94;69.39;95858.31;5010130;28;20227;-85
2023/06/28 03:51:42;;;;;;;5.38;3.47;;;;;;;18.95;69.64;95843.44;5011136;28;20249;-85
2023/06/28 03:54:09;;;;;;;4.07;3.45;;;;;;;18.96;69.16;95838.00;5011338;28;20203;-85
2023/06/28 03:56:35;;;;;;;3.92;3.53;;;;;;;18.96;69.36;95839.81;5011365;28;20206;-86
2023/06/28 03:59:04;;;;;;;4.00;3.60;;;;;;;18.96;68.95;95840.63;4998341;28;20230;-85
2023/06/28 04:01:30;;;;;;;3.40;3.10;;;;;;;18.94;68.89;95839.25;4991428;28;20251;-85
2023/06/28 04:03:56;;;;;;;3.95;3.40;;;;;;;18.92;69.49;95836.84;4998848;28;20763;-85
2023/06/28 04:06:23;;;;;;;4.43;3.10;;;;;;;18.95;68.92;95839.03;5011194;28;20215;-85
2023/06/28 04:08:49;;;;;;;5.13;3.83;;;;;;;18.97;68.86;95836.19;5011202;28;20207;-86
2023/06/28 04:11:16;;;;;;;4.45;3.60;;;;;;;18.89;69.57;95836.50;5013416;28;20226;-86
2023/06/28 04:13:43;;;;;;;3.58;3.28;;;;;;;18.88;69.19;95835.69;5015300;28;20199;-88
2023/06/28 04:16:10;;;;;;;3.72;3.20;;;;;;;18.90;68.84;95841.50;5015691;28;20207;-84
2023/06/28 04:18:37;;;;;;;4.60;3.50;;;;;;;18.91;68.85;95845.69;5015621;28;20202;-85
2023/06/28 04:21:03;;;;;;;4.82;3.47;;;;;;;18.95;68.99;95839.03;5012864;28;20222;-86
2023/06/28 04:23:30;;;;;;;3.40;3.10;;;;;;;18.91;69.32;95843.09;5015347;28;20210;-86
2023/06/28 04:26:00;;;;;;;3.58;3.28;;;;;;;18.89;70.15;95841.72;5014938;28;20213;-86
2023/06/28 04:28:26;;;;;;;4.00;3.33;;;;;;;18.90;70.28;95844.09;5030727;28;20198;-85
2023/06/28 04:30:53;;;;;;;3.30;3.00;;;;;;;18.94;69.43;95839.25;5034507;28;20302;-86
2023/06/28 04:33:22;;;;;;;3.42;3.13;;;;;;;18.85;69.63;95841.38;5034794;28;20209;-86
2023/06/28 04:35:50;;;;;;;3.80;3.38;;;;;;;18.83;69.73;95840.00;5029280;28;20210;-86
2023/06/28 04:38:18;;;;;;;4.45;3.47;;;;;;;18.75;69.63;95842.91;5015206;28;20295;-87
2023/06/28 04:40:45;;;;;;;3.70;3.40;;;;;;;18.70;70.01;95840.97;5015164;28;20262;-86
2023/06/28 04:43:14;;;;;;;4.30;3.70;;;;;;;18.61;70.10;95835.28;5015343;28;20274;-84
2023/06/28 04:45:40;;;;;;;3.30;3.00;;;;;;;18.56;69.47;95831.69;5015322;28;20203;-85
2023/06/28 04:48:08;;;;;;;3.88;3.22;;;;;;;18.63;69.63;95832.44;5015545;28;20202;-87
2023/06/28 04:50:37;;;;;;;3.53;3.22;;;;;;;18.70;69.62;95835.75;5014886;28;20608;-84
2023/06/28 04:53:04;;;;;;;4.38;3.22;;;;;;;18.53;70.46;95838.16;5014552;28;20252;-87
2023/06/28 04:55:32;;;;;;;4.30;3.88;;;;;;;18.51;71.08;95834.16;5009599;28;20235;-86
2023/06/28 04:57:59;;;;;;;4.32;3.15;;;;;;;18.50;70.42;95827.34;4984361;28;20728;-85
2023/06/28 05:00:25;;;;;;;3.10;2.80;;;;;;;18.39;70.24;95830.72;4994816;28;20227;-85
2023/06/28 05:02:52;;;;;;;4.38;3.00;;;;;;;18.37;70.10;95830.94;4994913;28;20203;-85
2023/06/28 05:05:19;;;;;;;3.70;2.83;;;;;;;18.46;69.63;95823.63;4995077;28;20207;-87
2023/06/28 05:07:46;;;;;;;4.65;3.45;;;;;;;18.42;69.37;95825.84;4995413;28;20207;-85
2023/06/28 05:10:13;;;;;;;3.80;3.38;;;;;;;18.38;70.11;95829.91;5007044;28;20530;-87
2023/06/28 05:12:39;;;;;;;3.50;2.90;;;;;;;18.44;69.80;95828.25;5014714;28;20228;-85
2023/06/28 05:15:07;;;;;;;3.70;3.40;;;;;;;18.42;70.40;95835.50;5013844;28;20203;-85
2023/06/28 05:17:33;;;;;;;4.10;3.40;;;;;;;18.47;70.08;95822.59;5008349;28;20263;-85
2023/06/28 05:20:00;;;;;;;3.30;2.90;;;;;;;18.48;71.15;95829.38;5013121;28;20565;-85
2023/06/28 05:22:27;;;;;;;5.93;3.10;;;;;;;18.55;69.70;95830.09;5012857;28;20206;-86
2023/06/28 05:24:55;;;;;;;4.18;3.70;;;;;;;18.49;69.61;95836.97;5012881;28;20211;-86
2023/06/28 05:27:21;;;;;;;4.13;3.55;;;;;;;18.52;69.62;95825.31;5021476;28;20225;-86
2023/06/28 05:29:48;;;;;;;4.63;3.20;;;;;;;18.53;69.53;95832.94;5033381;28;20230;-85
2023/06/28 05:32:14;;;;;;;3.90;3.50;;;;;;;18.48;69.47;95827.56;5034254;28;20252;-86
2023/06/28 05:34:41;;;;;;;4.75;3.08;;;;;;;18.50;69.11;95822.13;5033595;28;20260;-86
2023/06/28 05:37:09;;;;;;;3.65;3.22;;;;;;;18.51;69.25;95828.94;5033311;28;20205;-85
2023/06/28 05:39:36;;;;;;;5.22;3.20;;;;;;;18.53;69.56;95830.31;5033550;28;20209;-84
2023/06/28 05:42:04;;;;;;;3.10;2.83;;;;;;;18.55;68.95;95833.50;5014004;28;20250;-85
2023/06/28 05:44:31;;;;;;;5.57;2.97;;;;;;;18.52;68.14;95830.53;5013422;28;20210;-84
2023/06/28 05:46:57;;;;;;;3.42;3.05;;;;;;;18.45;68.30;95829.84;5013685;28;20210;-86
2023/06/28 05:49:23;;;;;;;3.88;2.90;;;;;;;18.46;68.28;95832.22;5013293;28;20367;-86
2023/06/28 05:51:51;;;;;;;3.25;2.90;;;;;;;18.30;68.89;95825.78;5013417;28;20242;-85
2023/06/28 05:54:17;;;;;;;3.10;2.80;;;;;;;18.39;68.54;95826.28;5012981;28;20207;-84
2023/06/28 05:56:44;;;;;;;3.10;2.90;;;;;;;18.49;67.88;95826.56;5001139;28;20203;-86
2023/06/28 05:59:11;;;;;;;3.75;2.97;;;;;;;18.49;68.13;95820.53;5010325;28;20765;-85
2023/06/28 06:01:38;;;;;;;4.65;3.10;;;;;;;18.49;69.22;95826.56;5013061;28;20222;-86
2023/06/28 06:04:04;;;;;;;3.88;2.45;;;;;;;18.60;67.74;95825.06;5013041;28;20209;-87
2023/06/28 06:06:31;;;;;;;3.60;2.80;;;;;;;18.55;68.57;95822.28;5013038;28;20202;-85
2023/06/28 06:08:57;;;;;;;4.70;3.63;;;;;;;18.59;68.84;95826.06;5012829;28;20207;-84
2023/06/28 06:11:24;;;;;;;5.72;3.30;;;;;;;18.71;68.01;95826.91;5012231;28;20234;-86
2023/06/28 06:13:50;;;;;;;3.55;2.83;;;;;;;18.76;65.55;95829.66;5012981;28;20203;-85
2023/06/28 06:16:18;;;;;;;3.40;2.75;;;;;;;18.84;65.01;95824.16;5013374;28;20883;-86
2023/06/28 06:18:45;;;;;;;3.70;2.90;;;;;;;18.86;65.24;95827.28;5013365;28;20217;-85
2023/06/28 06:21:11;;;;;;;3.60;2.50;;;;;;;18.91;64.57;95829.25;5012523;28;20215;-85
2023/06/28 06:23:38;;;;;;;2.90;2.50;;;;;;;19.00;64.50;95827.94;5013197;28;20202;-86
2023/06/28 06:26:04;;;;;;;4.32;3.25;;;;;;;18.96;65.31;95826.78;5016248;28;20210;-85
2023/06/28 06:28:30;;;;;;;3.88;2.67;;;;;;;18.97;64.71;95826.56;5029445;28;20209;-84
2023/06/28 06:30:57;;;;;;;2.78;2.13;;;;;;;19.03;64.23;95818.88;5012636;28;20262;-85
2023/06/28 06:33:25;;;;;;;3.35;2.55;;;;;;;19.11;64.12;95821.13;5013113;28;20615;-86
2023/06/28 06:35:52;;;;;;;4.38;2.80;;;;;;;19.17;64.59;95822.84;5013012;28;20198;-85
2023/06/28 06:38:18;;;;;;;2.88;2.63;;;;;;;19.23;64.67;95816.75;5012801;28;20210;-85
2023/06/28 06:40:45;;;;;;;4.15;2.63;;;;;;;19.21;63.47;95822.19;5012688;28;20226;-86
2023/06/28 06:43:14;;;;;;;4.30;2.83;;;;;;;19.31;63.64;95821.63;5013064;28;20302;-86
2023/06/28 06:45:40;;;;;;;3.08;2.40;;;;;;;19.37;63.41;95822.56;5011160;28;20213;-86
2023/06/28 06:48:06;;;;;;;4.25;2.70;;;;;;;19.29;63.60;95827.06;5012453;28;20218;-85
2023/06/28 06:50:34;;;;;;;2.75;2.55;;;;;;;19.21;63.22;95821.41;5012067;28;20237;-86
2023/06/28 06:53:01;;;;;;;4.03;2.80;;;;;;;19.26;63.40;95827.50;5006593;28;20226;-86
2023/06/28 06:55:27;;;;;;;3.35;2.50;;;;;;;19.28;63.86;95827.28;4992896;28;20203;-85
2023/06/28 06:57:53;;;;;;;3.17;2.63;;;;;;;19.33;64.24;95830.03;4992595;28;20253;-85
2023/06/28 07:00:20;;;;;;;4.75;2.88;;;;;;;19.38;64.57;95834.59;4991880;28;20758;-85
2023/06/28 07:02:47;;;;;;;3.00;2.67;;;;;;;19.37;64.41;95830.38;5009745;28;20210;-85
2023/06/28 07:05:14;;;;;;;3.83;2.75;;;;;;;19.32;64.78;95831.84;5012552;28;20202;-85
2023/06/28 07:07:42;;;;;;;4.03;2.70;;;;;;;19.43;64.69;95834.72;5012439;28;20230;-86
2023/06/28 07:10:09;;;;;;;2.67;2.47;;;;;;;19.48;64.45;95832.19;5012506;28;20700;-85
2023/06/28 07:12:36;;;;;;;3.05;2.42;;;;;;;19.45;65.33;95833.44;5012255;28;20680;-85
2023/06/28 07:15:02;;;;;;;2.90;2.60;;;;;;;19.49;65.22;95833.78;5011641;28;20214;-84
2023/06/28 07:17:30;;;;;;;2.92;2.60;;;;;;;19.48;65.17;95829.59;5010576;28;20209;-86
2023/06/28 07:19:57;;;;;;;2.90;2.65;;;;;;;19.56;65.72;95829.31;5010887;28;20301;-88
2023/06/28 07:22:23;;;;;;;2.58;2.38;;;;;;;19.64;65.35;95832.34;5011325;28;20206;-85
2023/06/28 07:24:51;;;;;;;3.20;2.30;;;;;;;19.66;65.14;95838.16;5011080;28;20635;-86
2023/06/28 07:27:17;;;;;;;3.03;2.45;;;;;;;19.71;64.89;95841.91;5022930;28;20202;-85
2023/06/28 07:29:44;;;;;;;2.90;2.50;;;;;;;19.80;65.18;95846.56;5030373;28;20209;-86
2023/06/28 07:32:10;;;;;;;3.90;2.70;;;;;;;19.80;64.62;95840.56;5030460;28;20206;-85
2023/06/28 07:34:38;;;;;;;3.05;2.63;;;;;;;19.89;64.79;95836.56;5014172;28;20247;-84
2023/06/28 07:37:06;;;;;;;4.00;2.85;;;;;;;19.92;65.13;95849.19;5010672;28;20211;-85
2023/06/28 07:39:33;;;;;;;3.67;2.40;;;;;;;19.91;64.53;95848.38;5011412;28;20214;-85
2023/06/28 07:42:01;;;;;;;3.83;2.50;;;;;;;19.78;64.76;95851.22;5010711;28;20229;-86
2023/06/28 07:44:27;;;;;;;2.85;2.65;;;;;;;19.89;64.91;95847.81;5010975;28;20207;-85
2023/06/28 07:46:54;;;;;;;2.30;2.10;;;;;;;20.00;64.52;95848.84;5010568;28;20203;-86
2023/06/28 07:49:25;;;;;;;2.88;2.53;;;;;;;20.15;64.41;95848.38;5010731;28;20202;-86
2023/06/28 07:51:53;;;;;;;2.88;2.58;;;;;;;20.10;64.20;95848.25;5010921;28;20242;-85
2023/06/28 07:54:19;;;;;;;3.95;2.40;;;;;;;20.18;63.56;95851.31;4994467;28;20271;-86
2023/06/28 07:56:46;;;;;;;5.20;2.50;;;;;;;20.20;62.95;95854.50;4991970;28;20218;-86
2023/06/28 07:59:14;;;;;;;3.78;2.40;;;;;;;20.16;61.11;95853.38;4991297;28;20203;-86
2023/06/28 08:01:41;;;;;;;4.82;2.78;;;;;;;20.24;61.56;95860.03;4991358;28;20242;-85
2023/06/28 08:04:08;;;;;;;3.95;2.25;;;;;;;20.29;61.45;95854.94;4991255;28;20739;-85
2023/06/28 08:06:34;;;;;;;4.30;2.50;;;;;;;20.41;60.73;95858.34;5008825;28;20253;-86
2023/06/28 08:09:00;;;;;;;3.45;2.67;;;;;;;20.41;61.08;95854.94;5010055;28;20206;-85
2023/06/28 08:11:27;;;;;;;2.55;2.35;;;;;;;20.50;61.09;95854.34;5010093;28;20718;-85
2023/06/28 08:13:54;;;;;;;3.10;2.38;;;;;;;20.60;60.60;95859.75;5010285;28;20643;-85
2023/06/28 08:16:22;;;;;;;3.90;2.30;;;;;;;20.62;59.19;95856.91;5010273;28;20862;-85
2023/06/28 08:18:48;;;;;;;4.03;2.50;;;;;;;20.73;59.31;95852.69;5010118;28;20686;-86
2023/06/28 08:21:15;;;;;;;3.72;2.20;;;;;;;20.74;58.62;95855.06;5008099;28;20215;-87
2023/06/28 08:23:41;;;;;;;2.58;2.30;;;;;;;20.71;58.01;95852.13;5006601;28;20217;-85
2023/06/28 08:26:08;;;;;;;3.15;2.40;;;;;;;20.74;57.40;95843.81;5013287;28;20206;-85
2023/06/28 08:28:34;;;;;;;2.90;2.08;;;;;;;20.85;57.11;95841.13;5029562;28;20201;-85
2023/06/28 08:31:00;;;;;;;4.50;2.38;;;;;;;21.00;57.08;95849.25;5029589;28;20230;-85
2023/06/28 08:33:28;;;;;;;2.88;2.15;;;;;;;21.12;56.79;95854.44;5029825;28;20202;-85
2023/06/28 08:35:56;;;;;;;3.00;2.10;;;;;;;21.25;56.49;95850.75;5028523;28;20210;-85
2023/06/28 08:38:23;;;;;;;3.03;1.95;;;;;;;21.35;55.36;95848.31;5018761;28;20229;-85
2023/06/28 08:40:50;;;;;;;2.22;1.90;;;;;;;21.45;54.83;95847.69;5008815;28;20231;-86
2023/06/28 08:43:17;;;;;;;2.67;1.98;;;;;;;21.45;54.59;95845.84;5009576;28;20286;-85
2023/06/28 08:45:45;;;;;;;3.10;2.20;;;;;;;21.53;53.80;95857.78;5009639;28;20202;-86
2023/06/28 08:48:12;;;;;;;6.93;2.70;;;;;;;21.57;53.47;95848.38;5008784;28;20250;-84
2023/06/28 08:50:41;;;;;;;2.85;2.03;;;;;;;21.68;53.42;95845.69;5008571;28;20727;-85
2023/06/28 08:53:09;;;;;;;2.92;2.22;;;;;;;21.69;52.64;95847.28;5002272;28;20640;-84
2023/06/28 08:55:36;;;;;;;2.83;2.13;;;;;;;21.64;53.17;95834.09;5005680;28;20685;-86
2023/06/28 08:58:06;;;;;;;2.97;2.28;;;;;;;21.57;51.72;95848.38;5011104;28;20207;-85
2023/06/28 09:00:32;;;;;;;3.75;2.20;;;;;;;21.68;51.91;95853.56;5012714;28;20222;-85
2023/06/28 09:03:00;;;;;;;3.65;2.30;;;;;;;21.85;52.08;95850.13;5012267;28;20205;-84
2023/06/28 09:05:26;;;;;;;2.72;2.40;;;;;;;22.03;50.99;95842.00;5012448;28;20205;-85
2023/06/28 09:07:57;;;;;;;4.18;2.33;;;;;;;22.32;50.85;95832.94;5012391;28;20199;-86
2023/06/28 09:10:24;;;;;;;2.42;2.10;;;;;;;22.55;49.10;95821.41;5011258;28;20261;-86
2023/06/28 09:12:51;;;;;;;2.42;1.92;;;;;;;22.72;49.30;95827.38;5011733;28;20210;-86
2023/06/28 09:15:20;;;;;;;2.70;1.80;;;;;;;22.93;48.94;95843.34;5012292;28;20224;-85
2023/06/28 09:17:46;;;;;;;5.95;2.30;;;;;;;22.94;48.59;95835.22;5012213;28;20207;-85
2023/06/28 09:20:17;;;;;;;3.38;2.28;;;;;;;22.96;48.06;95837.63;5010410;28;20226;-85
2023/06/28 09:22:43;;;;;;;3.42;2.20;;;;;;;23.05;49.04;95836.94;5011541;28;20546;-85
2023/06/28 09:25:11;;;;;;;2.40;2.20;;;;;;;23.04;49.89;95834.56;5011978;28;20198;-86
2023/06/28 09:27:38;;;;;;;5.68;2.60;;;;;;;23.01;49.67;95824.53;5012205;28;20249;-85
2023/06/28 09:30:05;;;;;;;3.85;2.88;;;;;;;22.84;49.43;95835.16;5011609;28;20231;-85
2023/06/28 09:32:39;;;;;;;2.53;2.20;;;;;;;22.89;48.53;95834.41;5011626;28;20230;-85
2023/06/28 09:35:09;;;;;;;3.65;2.03;;;;;;;22.84;47.01;95835.16;5012206;28;20198;-85
2023/06/28 09:37:36;;;;;;;2.75;2.40;;;;;;;22.77;48.31;95831.91;5011942;28;20207;-86
2023/06/28 09:40:05;;;;;;;2.40;2.20;;;;;;;22.89;47.46;95826.53;5011660;28;20261;-86
2023/06/28 09:42:43;;;;;;;2.50;2.30;;;;;;;22.83;46.50;95835.38;5010358;28;20245;-84
2023/06/28 09:45:11;;;;;;;3.72;2.50;;;;;;;23.01;46.99;95841.09;5011652;28;20234;-84
2023/06/28 09:47:37;;;;;;;2.33;2.08;;;;;;;23.15;47.03;95825.72;5011519;28;20198;-85
2023/06/28 09:50:04;;;;;;;4.25;2.40;;;;;;;23.21;46.91;95824.72;5009097;28;20227;-85
2023/06/28 09:52:36;;;;;;;3.65;2.05;;;;;;;23.17;47.12;95825.47;4991452;28;20223;-85
2023/06/28 09:55:04;;;;;;;3.78;2.20;;;;;;;23.24;47.75;95811.09;4991305;28;20590;-85
2023/06/28 09:57:33;;;;;;;2.53;2.05;;;;;;;23.05;47.67;95813.28;4998225;28;20853;-85
2023/06/28 10:00:04;;;;;;;2.30;2.10;;;;;;;22.82;47.98;95820.69;5009747;28;20210;-85
2023/06/28 10:02:32;;;;;;;2.90;2.38;;;;;;;22.90;47.63;95804.50;5010927;28;20264;-85
2023/06/28 10:05:00;;;;;;;3.22;2.10;;;;;;;23.01;45.95;95800.91;5011259;28;20551;-86
2023/06/28 10:07:27;;;;;;;4.13;2.30;;;;;;;22.79;47.78;95808.84;5010656;28;20253;-84
2023/06/28 10:09:55;;;;;;;3.22;2.10;;;;;;;22.83;46.69;95806.50;5011313;28;20218;-85
2023/06/28 10:12:25;;;;;;;2.42;1.92;;;;;;;22.61;46.58;95807.31;5011227;28;20241;-85
2023/06/28 10:14:56;;;;;;;2.00;1.90;;;;;;;22.38;47.09;95803.09;5009780;28;20199;-85
2023/06/28 10:17:23;;;;;;;4.65;2.40;;;;;;;22.40;47.01;95810.75;5010996;28;20219;-86
2023/06/28 10:19:49;;;;;;;3.20;2.20;;;;;;;22.46;47.37;95795.84;5009451;28;20207;-85
2023/06/28 10:22:17;;;;;;;2.20;1.92;;;;;;;22.37;47.68;95806.78;5010478;28;20199;-86
2023/06/28 10:24:44;;;;;;;2.92;2.10;;;;;;;22.27;47.26;95798.78;5011788;28;20202;-84
2023/06/28 10:27:11;;;;;;;4.00;2.40;;;;;;;22.38;47.58;95802.31;5022662;28;20597;-85
2023/06/28 10:29:40;;;;;;;4.97;2.30;;;;;;;22.50;47.26;95803.00;5031102;28;20198;-87
2023/06/28 10:32:10;;;;;;;3.85;2.25;;;;;;;22.48;47.86;95810.31;5014008;28;20570;-86
2023/06/28 10:34:37;;;;;;;2.47;2.20;;;;;;;22.57;47.94;95802.78;5010811;28;20215;-85
2023/06/28 10:37:03;;;;;;;4.47;2.15;;;;;;;22.62;46.54;95808.91;5011117;28;20199;-86
2023/06/28 10:39:34;;;;;;;2.47;2.00;;;;;;;23.13;46.28;95805.97;5011576;28;20210;-85
2023/06/28 10:42:01;;;;;;;2.25;2.00;;;;;;;23.26;46.08;95805.59;5010752;28;20314;-85
2023/06/28 10:44:28;;;;;;;2.90;1.92;;;;;;;23.57;44.99;95804.00;5011316;28;20210;-85
2023/06/28 10:47:12;;;;;;;2.30;1.95;;;;;;;23.79;43.88;95807.31;5009236;28;20205;-86
2023/06/28 10:49:41;;;;;;;2.55;2.00;;;;;;;23.96;43.56;95807.94;5010899;28;20238;-85
2023/06/28 10:52:13;;;;;;;1.85;1.75;;;;;;;23.89;43.75;95804.72;4991236;28;20254;-85
2023/06/28 10:54:40;;;;;;;2.33;1.77;;;;;;;23.72;43.58;95810.16;5004619;28;20650;-85
2023/06/28 10:57:09;;;;;;;2.35;2.03;;;;;;;23.56;43.37;95807.69;5010157;28;20698;-85
2023/06/28 10:59:36;;;;;;;3.15;2.10;;;;;;;23.48;42.90;95808.88;5010687;28;20205;-86
2023/06/28 11:02:05;;;;;;;2.88;2.03;;;;;;;23.33;42.45;95806.94;5010099;28;20226;-86
2023/06/28 11:04:33;;;;;;;3.92;1.90;;;;;;;23.22;42.87;95807.91;5008937;28;20686;-86
2023/06/28 11:07:14;;;;;;;2.55;2.03;;;;;;;23.34;43.67;95813.78;5010179;28;20206;-85
2023/06/28 11:09:40;;;;;;;2.70;2.22;;;;;;;23.37;44.88;95810.66;5009977;28;20607;-85
2023/06/28 11:12:14;;;;;;;2.65;2.10;;;;;;;23.87;44.11;95798.13;5009563;28;20230;-85
2023/06/28 11:14:40;;;;;;;3.67;2.10;;;;;;;24.15;43.62;95795.13;5009913;28;20207;-85
2023/06/28 11:17:14;;;;;;;2.53;2.08;;;;;;;24.51;43.50;95805.81;5010230;28;20203;-85
2023/06/28 11:19:42;;;;;;;4.38;2.47;;;;;;;24.83;41.58;95803.78;5007703;28;20206;-85
2023/06/28 11:22:09;;;;;;;2.20;2.03;;;;;;;24.86;41.89;95798.00;5009271;28;20631;-85
2023/06/28 11:24:43;;;;;;;3.05;2.20;;;;;;;25.10;42.16;95790.44;5009378;28;20683;-85
2023/06/28 11:27:11;;;;;;;3.47;2.38;;;;;;;25.24;40.72;95794.13;5020231;28;20197;-85
2023/06/28 11:29:52;;;;;;;2.58;1.98;;;;;;;25.33;40.51;95794.41;5011825;28;20198;-85
2023/06/28 11:32:23;;;;;;;2.58;1.90;;;;;;;25.12;40.60;95793.59;5008947;28;20229;-85
2023/06/28 11:34:51;;;;;;;4.05;2.00;;;;;;;25.01;40.30;95805.19;5008402;28;20949;-85